Time;durP1;ratioP1;P1;durP2;ratioP2;P2;SDS_P1;SDS_P2;PMS_P1;PMS_P2;Temp;Humidity;BMP_temperature;BMP_pressure;BME280_temperature;BME280_humidity;BME280_pressure;Samples;Min_cycle;Max_cycle;Signal;HPM_P1;HPM_P2
2022/11/15 00:01:23;;;;;;;12.10;1.77;;;;;;;10.92;100.00;98356.22;4987836;28;20060;-42
2022/11/15 00:03:53;;;;;;;7.28;1.40;;;;;;;10.94;100.00;98358.56;4988769;28;20551;-42
2022/11/15 00:06:21;;;;;;;8.75;1.38;;;;;;;10.96;100.00;98350.69;4987776;28;20508;-42
2022/11/15 00:08:48;;;;;;;10.15;2.45;;;;;;;10.97;100.00;98352.25;4989667;28;20048;-42
2022/11/15 00:11:15;;;;;;;10.27;1.60;;;;;;;10.98;100.00;98337.22;4988571;28;20050;-44
2022/11/15 00:13:42;;;;;;;12.68;2.25;;;;;;;10.99;100.00;98322.94;4990008;28;20057;-45
2022/11/15 00:16:10;;;;;;;13.52;1.88;;;;;;;11.00;100.00;98319.00;4989974;28;20477;-43
2022/11/15 00:18:38;;;;;;;13.52;1.95;;;;;;;11.02;100.00;98316.59;4989662;28;20051;-46
2022/11/15 00:21:09;;;;;;;22.40;2.83;;;;;;;11.04;100.00;98309.88;4989559;28;20050;-42
2022/11/15 00:23:36;;;;;;;11.05;2.20;;;;;;;11.04;100.00;98296.03;4990596;28;20054;-42
2022/11/15 00:26:03;;;;;;;11.73;2.25;;;;;;;11.05;100.00;98292.84;4989964;28;20047;-42
2022/11/15 00:28:30;;;;;;;11.73;2.35;;;;;;;11.06;100.00;98288.09;4988963;28;20407;-45
2022/11/15 00:31:05;;;;;;;8.75;1.13;;;;;;;11.07;100.00;98296.00;4989707;28;20102;-43
2022/11/15 00:33:33;;;;;;;8.13;0.90;;;;;;;11.07;100.00;98284.91;4990212;28;20046;-42
2022/11/15 00:36:05;;;;;;;4.43;1.02;;;;;;;11.08;100.00;98269.09;4990086;28;20407;-43
2022/11/15 00:38:33;;;;;;;7.85;1.70;;;;;;;11.09;100.00;98277.00;4971406;28;20085;-44
2022/11/15 00:41:01;;;;;;;3.92;0.85;;;;;;;11.10;100.00;98286.09;4985261;28;20046;-47
2022/11/15 00:43:34;;;;;;;9.85;1.27;;;;;;;11.10;100.00;98267.50;4985905;28;20089;-42
2022/11/15 00:46:02;;;;;;;5.28;1.00;;;;;;;11.12;100.00;98265.09;4985679;28;20061;-43
2022/11/15 00:48:29;;;;;;;11.40;1.50;;;;;;;11.12;100.00;98254.00;4983821;28;20427;-43
2022/11/15 00:50:56;;;;;;;2.83;1.02;;;;;;;11.13;100.00;98254.81;4989289;28;20039;-47
2022/11/15 00:53:23;;;;;;;9.30;2.63;;;;;;;11.15;100.00;98255.97;4955642;28;20381;-44
2022/11/15 00:55:49;;;;;;;3.92;0.95;;;;;;;11.16;100.00;98240.94;4948666;28;20051;-46
2022/11/15 00:58:16;;;;;;;5.65;1.02;;;;;;;11.18;100.00;98246.84;4949672;28;20062;-48
2022/11/15 01:00:43;;;;;;;9.65;2.17;;;;;;;11.17;100.00;98237.00;4950327;28;20253;-44
2022/11/15 01:03:10;;;;;;;5.63;1.10;;;;;;;11.19;100.00;98228.25;4948613;28;20525;-44
2022/11/15 01:05:38;;;;;;;5.57;0.82;;;;;;;11.21;100.00;98231.41;4950123;28;20051;-46
2022/11/15 01:08:05;;;;;;;6.85;1.10;;;;;;;11.22;100.00;98231.00;4948355;28;20468;-47
2022/11/15 01:10:31;;;;;;;3.92;1.15;;;;;;;11.23;100.00;98215.94;4950724;28;20049;-44
2022/11/15 01:12:58;;;;;;;8.05;1.00;;;;;;;11.25;100.00;98219.06;4949188;28;20055;-46
2022/11/15 01:15:25;;;;;;;9.07;1.00;;;;;;;11.27;100.00;98215.91;4932194;28;21969;-44
2022/11/15 01:17:52;;;;;;;6.68;1.00;;;;;;;11.29;100.00;98210.75;4949798;28;20068;-46
2022/11/15 01:20:18;;;;;;;9.63;1.85;;;;;;;11.29;100.00;98200.44;4950033;28;20089;-46
2022/11/15 01:22:45;;;;;;;5.93;0.77;;;;;;;11.30;100.00;98193.72;4949378;28;20050;-45
2022/11/15 01:25:12;;;;;;;2.28;0.73;;;;;;;11.33;100.00;98203.19;4949797;28;20058;-46
2022/11/15 01:27:39;;;;;;;5.25;0.90;;;;;;;11.33;100.00;98192.88;4949299;28;20130;-49
2022/11/15 01:30:08;;;;;;;7.63;1.08;;;;;;;11.34;100.00;98182.59;4933033;28;20057;-46
2022/11/15 01:32:34;;;;;;;6.60;0.70;;;;;;;11.33;100.00;98165.19;4949019;28;20769;-46
2022/11/15 01:35:01;;;;;;;3.72;0.80;;;;;;;11.34;100.00;98168.75;4948098;28;20053;-44
2022/11/15 01:37:28;;;;;;;6.80;1.02;;;;;;;11.34;100.00;98166.75;4947460;28;20054;-46
2022/11/15 01:39:55;;;;;;;3.53;0.85;;;;;;;11.37;100.00;98162.38;4948955;28;20780;-48
2022/11/15 01:42:22;;;;;;;4.15;0.93;;;;;;;11.36;100.00;98150.50;4968594;28;20043;-46
2022/11/15 01:44:51;;;;;;;3.97;0.90;;;;;;;11.38;100.00;98145.38;4978541;28;20049;-42
2022/11/15 01:47:26;;;;;;;4.82;0.52;;;;;;;11.39;100.00;98148.91;4969557;28;20050;-45
2022/11/15 01:49:56;;;;;;;5.63;0.93;;;;;;;11.39;100.00;98135.84;4988559;28;20050;-45
2022/11/15 01:52:27;;;;;;;2.83;1.05;;;;;;;11.41;100.00;98132.66;4986472;28;20046;-45
2022/11/15 01:55:01;;;;;;;6.80;0.88;;;;;;;11.41;100.00;98133.44;4989511;28;20039;-44
2022/11/15 01:57:28;;;;;;;2.58;0.60;;;;;;;11.43;100.00;98125.50;4991544;28;20047;-47
2022/11/15 01:59:55;;;;;;;5.03;0.98;;;;;;;11.44;100.00;98115.97;4988593;28;20065;-42
2022/11/15 02:02:22;;;;;;;7.38;0.52;;;;;;;11.45;100.00;98117.56;4987299;28;20058;-43
2022/11/15 02:04:49;;;;;;;4.00;1.05;;;;;;;11.46;100.00;98113.56;4988176;28;20042;-47
2022/11/15 02:07:19;;;;;;;5.28;0.70;;;;;;;11.47;100.00;98151.19;4988322;28;20053;-44
2022/11/15 02:09:46;;;;;;;2.08;0.45;;;;;;;11.37;100.00;98190.88;4974594;28;20034;-40
2022/11/15 02:12:18;;;;;;;1.98;0.20;;;;;;;11.02;100.00;98183.72;4991815;28;20054;-42
2022/11/15 02:14:51;;;;;;;3.13;0.40;;;;;;;10.70;100.00;98194.28;4992896;28;20042;-47
2022/11/15 02:17:20;;;;;;;1.20;0.45;;;;;;;10.49;100.00;98213.00;4992559;28;20085;-41
2022/11/15 02:20:25;;;;;;;1.13;0.82;;;;;;;10.30;100.00;98226.16;4991470;28;20150;-44
2022/11/15 02:23:19;;;;;;;3.30;0.57;;;;;;;10.13;100.00;98227.06;4932244;29;20052;-42
2022/11/15 02:26:23;;;;;;;4.55;0.80;;;;;;;10.01;100.00;98224.72;4932310;29;20517;-44
2022/11/15 02:29:10;;;;;;;8.70;1.05;;;;;;;9.85;100.00;98227.16;4956165;28;20828;-48
2022/11/15 02:32:14;;;;;;;5.63;0.90;;;;;;;9.69;100.00;98235.09;4985843;28;20054;-46
2022/11/15 02:35:08;;;;;;;6.15;1.00;;;;;;;9.58;100.00;98231.63;4989540;28;20510;-44
2022/11/15 02:37:44;;;;;;;5.32;1.88;;;;;;;9.48;100.00;98224.91;4984687;28;20061;-43
2022/11/15 02:40:26;;;;;;;5.78;1.27;;;;;;;9.48;100.00;98229.66;4987752;28;20076;-43
2022/11/15 02:45:56;;;;;;;3.10;0.73;;;;;;;9.43;100.00;98243.88;4988569;28;20105;-42
2022/11/15 02:48:25;;;;;;;5.78;0.80;;;;;;;9.43;100.00;98252.16;4988085;28;20057;-43
2022/11/15 02:50:52;;;;;;;4.68;0.90;;;;;;;9.41;100.00;98249.00;4986673;28;20034;-43
2022/11/15 02:53:25;;;;;;;3.33;0.75;;;;;;;9.40;100.00;98247.47;4987318;28;20563;-43
2022/11/15 02:55:54;;;;;;;3.85;0.57;;;;;;;9.38;100.00;98250.59;4989910;28;20085;-50
2022/11/15 02:58:39;;;;;;;5.18;1.00;;;;;;;9.39;100.00;98257.72;4990234;28;20101;-44
2022/11/15 03:01:14;;;;;;;6.63;1.65;;;;;;;9.41;100.00;98262.81;5012749;23;20146;-43
2022/11/15 03:03:48;;;;;;;5.35;1.02;;;;;;;9.38;100.00;98263.59;4970717;28;20039;-43
2022/11/15 03:06:31;;;;;;;3.03;0.65;;;;;;;9.37;100.00;98267.56;4971586;28;20050;-42
2022/11/15 03:09:28;;;;;;;9.77;1.75;;;;;;;9.37;100.00;98267.56;4971257;28;20215;-42
2022/11/15 03:12:15;;;;;;;8.23;1.08;;;;;;;9.36;100.00;98271.50;4963063;28;20050;-45
2022/11/15 03:15:17;;;;;;;8.63;1.20;;;;;;;9.34;100.00;98263.63;4971912;28;20050;-50
2022/11/15 03:18:04;;;;;;;8.75;1.65;;;;;;;9.28;100.00;98264.41;4971102;28;20051;-42
2022/11/15 03:20:32;;;;;;;5.70;1.27;;;;;;;9.23;100.00;98260.09;4972108;28;20050;-42
2022/11/15 03:23:10;;;;;;;10.00;1.67;;;;;;;9.22;100.00;98260.47;4971467;28;20134;-42
2022/11/15 03:25:45;;;;;;;5.45;1.20;;;;;;;9.17;100.00;98270.75;4972581;28;20501;-41
2022/11/15 03:28:15;;;;;;;11.35;1.55;;;;;;;9.15;100.00;98275.09;4971259;28;20051;-45
2022/11/15 03:30:46;;;;;;;11.07;1.20;;;;;;;9.14;100.00;98274.28;4971069;28;20081;-44
2022/11/15 03:33:13;;;;;;;10.10;2.83;;;;;;;9.15;100.00;98269.56;4985380;28;20054;-45
2022/11/15 03:35:44;;;;;;;10.88;1.40;;;;;;;9.11;100.00;98277.84;4969803;28;20501;-42
2022/11/15 03:38:20;;;;;;;11.38;1.27;;;;;;;9.08;100.00;98270.34;4969817;28;20042;-45
2022/11/15 03:41:14;;;;;;;8.43;1.20;;;;;;;9.06;100.00;98280.22;4970553;28;20050;-43
2022/11/15 03:43:48;;;;;;;11.65;1.70;;;;;;;8.99;100.00;98272.72;4970375;28;20051;-43
2022/11/15 03:46:25;;;;;;;6.80;1.50;;;;;;;8.93;100.00;98287.31;4970000;28;20125;-43
2022/11/15 03:48:59;;;;;;;14.95;1.65;;;;;;;8.86;100.00;98290.88;4960822;28;20061;-48
2022/11/15 03:51:28;;;;;;;8.63;1.20;;;;;;;8.83;100.00;98272.34;4938910;28;20066;-44
2022/11/15 03:53:55;;;;;;;4.88;1.50;;;;;;;8.80;100.00;98267.59;4938965;28;20043;-49
2022/11/15 03:56:21;;;;;;;5.15;1.77;;;;;;;8.77;100.00;98273.91;4937180;28;21768;-46
2022/11/15 03:58:48;;;;;;;13.63;1.60;;;;;;;8.75;100.00;98269.97;4937066;28;20121;-43
2022/11/15 04:01:15;;;;;;;12.45;1.70;;;;;;;8.73;100.00;98277.84;4937535;28;20061;-46
2022/11/15 04:03:42;;;;;;;8.02;1.42;;;;;;;8.67;100.00;98260.88;4958886;28;20078;-44
2022/11/15 04:06:08;;;;;;;6.78;1.42;;;;;;;8.66;100.00;98264.81;4970822;28;20150;-49
2022/11/15 04:08:35;;;;;;;10.07;1.83;;;;;;;8.69;100.00;98253.00;4970577;28;20142;-43
2022/11/15 04:11:02;;;;;;;10.85;1.60;;;;;;;8.66;100.00;98256.53;4971003;28;20045;-43
2022/11/15 04:13:29;;;;;;;11.65;2.13;;;;;;;8.69;100.00;98254.97;4971048;28;20138;-43
2022/11/15 04:15:56;;;;;;;7.95;1.48;;;;;;;8.69;100.00;98264.03;4970575;28;20058;-43
2022/11/15 04:18:24;;;;;;;8.77;1.67;;;;;;;8.68;100.00;98251.44;4970465;28;20093;-44
2022/11/15 04:26:32;;;;;;;13.10;1.77;;;;;;;8.58;100.00;98257.72;4957071;28;20400;-43
2022/11/15 04:31:44;;;;;;;9.20;1.88;;;;;;;8.52;100.00;98256.53;4969674;28;20097;-42
2022/11/15 04:34:11;;;;;;;16.55;2.80;;;;;;;8.51;100.00;98257.72;4969034;28;20047;-45
2022/11/15 04:39:23;;;;;;;7.90;1.77;;;;;;;8.52;100.00;98267.56;4969272;28;20117;-48
2022/11/15 04:41:50;;;;;;;17.30;2.90;;;;;;;8.50;100.00;98259.69;4970091;28;20129;-44
2022/11/15 04:44:17;;;;;;;6.95;2.15;;;;;;;8.48;100.00;98272.28;4968687;28;20456;-44
2022/11/15 04:46:44;;;;;;;7.97;1.23;;;;;;;8.47;100.00;98279.75;4968910;28;20105;-43
2022/11/15 04:49:10;;;;;;;10.65;2.00;;;;;;;8.47;100.00;98281.75;4969165;28;20047;-42
2022/11/15 04:51:37;;;;;;;14.38;1.75;;;;;;;8.43;100.00;98267.94;4966924;28;20049;-48
2022/11/15 04:54:04;;;;;;;6.13;1.45;;;;;;;8.40;100.00;98265.19;4967033;28;20101;-43
2022/11/15 04:56:31;;;;;;;15.57;2.20;;;;;;;8.38;100.00;98264.78;4968930;28;20054;-46
2022/11/15 04:58:57;;;;;;;12.40;1.80;;;;;;;8.38;100.00;98262.03;4968324;28;20046;-51
2022/11/15 05:01:24;;;;;;;7.35;1.95;;;;;;;8.38;100.00;98270.28;4968473;28;20157;-42
2022/11/15 05:06:36;;;;;;;7.88;1.42;;;;;;;8.36;100.00;98269.91;4967987;28;20488;-43
2022/11/15 05:09:03;;;;;;;11.00;1.85;;;;;;;8.35;100.00;98265.56;4968802;28;20154;-42
2022/11/15 05:11:30;;;;;;;15.00;3.22;;;;;;;8.34;100.00;98277.78;4969467;28;20057;-46
2022/11/15 05:13:57;;;;;;;10.50;1.67;;;;;;;8.35;100.00;98279.34;4968149;28;20139;-43
2022/11/15 05:16:24;;;;;;;15.18;2.45;;;;;;;8.35;100.00;98277.38;4967754;28;20062;-42
2022/11/15 05:18:52;;;;;;;9.20;1.88;;;;;;;8.38;100.00;98284.09;4970377;28;20054;-42
2022/11/15 05:21:18;;;;;;;16.45;2.25;;;;;;;8.36;100.00;98289.19;4968490;28;20516;-42
2022/11/15 05:23:45;;;;;;;16.83;2.67;;;;;;;8.37;100.00;98279.72;4967898;28;20124;-43
2022/11/15 05:26:14;;;;;;;6.72;2.30;;;;;;;8.36;100.00;98291.97;4968184;28;20513;-43
2022/11/15 05:28:41;;;;;;;11.93;1.60;;;;;;;8.34;100.00;98300.59;4967665;28;20038;-42
2022/11/15 05:31:13;;;;;;;18.08;2.15;;;;;;;8.32;100.00;98288.38;4969818;28;20051;-42
2022/11/15 05:33:41;;;;;;;15.05;2.10;;;;;;;8.31;100.00;98300.63;4969011;28;20078;-44
2022/11/15 05:36:11;;;;;;;12.25;2.83;;;;;;;8.28;100.00;98290.34;4968208;28;20054;-43
2022/11/15 05:38:39;;;;;;;11.30;2.08;;;;;;;8.28;100.00;98306.91;4969155;28;20051;-42
2022/11/15 05:41:05;;;;;;;10.00;2.70;;;;;;;8.28;100.00;98315.16;4966055;28;20051;-47
2022/11/15 05:43:36;;;;;;;12.80;2.10;;;;;;;8.29;100.00;98327.75;4968047;28;20043;-43
2022/11/15 05:46:04;;;;;;;11.52;2.20;;;;;;;8.31;100.00;98333.69;4968222;28;20382;-45
2022/11/15 05:48:34;;;;;;;12.82;1.88;;;;;;;8.29;100.00;98330.50;4967794;28;20047;-48
2022/11/15 05:51:02;;;;;;;12.65;2.30;;;;;;;8.26;100.00;98336.78;4968515;28;20405;-44
2022/11/15 05:53:30;;;;;;;10.23;2.20;;;;;;;8.21;100.00;98337.13;4968377;28;20043;-43
2022/11/15 05:55:57;;;;;;;11.57;2.65;;;;;;;8.19;100.00;98342.25;4968029;28;20062;-44
2022/11/15 05:58:24;;;;;;;8.20;1.83;;;;;;;8.18;100.00;98340.69;4967362;28;20142;-42
2022/11/15 06:00:51;;;;;;;20.30;2.90;;;;;;;8.20;100.00;98341.09;4966252;28;20124;-45
2022/11/15 06:03:18;;;;;;;20.05;3.03;;;;;;;8.19;100.00;98342.25;4965564;28;20512;-43
2022/11/15 06:05:44;;;;;;;9.70;2.75;;;;;;;8.16;100.00;98326.50;4968939;28;20069;-47
2022/11/15 06:08:11;;;;;;;18.77;2.13;;;;;;;8.14;100.00;98328.84;4969419;28;20461;-43
2022/11/15 06:10:38;;;;;;;12.18;2.30;;;;;;;8.14;100.00;98339.88;4969505;28;20035;-43
2022/11/15 06:13:05;;;;;;;12.40;2.53;;;;;;;8.12;100.00;98354.06;4969384;28;20042;-44
2022/11/15 06:15:36;;;;;;;19.67;2.20;;;;;;;8.08;100.00;98369.78;4969010;28;20055;-45
2022/11/15 06:18:03;;;;;;;9.45;2.20;;;;;;;8.06;100.00;98366.63;4969525;28;20051;-43
2022/11/15 06:20:31;;;;;;;13.18;2.58;;;;;;;8.05;100.00;98339.47;4967911;28;20138;-43
2022/11/15 06:23:03;;;;;;;16.73;1.95;;;;;;;8.02;100.00;98338.28;4968798;28;20049;-44
2022/11/15 06:25:31;;;;;;;8.30;1.90;;;;;;;8.03;100.00;98344.53;4969134;28;20605;-44
2022/11/15 06:27:58;;;;;;;12.25;2.25;;;;;;;8.04;100.00;98340.63;4969517;28;20122;-43
2022/11/15 06:30:26;;;;;;;13.80;2.90;;;;;;;8.03;100.00;98325.25;4969395;28;20113;-48
2022/11/15 06:33:04;;;;;;;10.85;2.97;;;;;;;8.00;100.00;98326.81;4968516;28;20555;-48
2022/11/15 06:35:33;;;;;;;17.40;2.78;;;;;;;7.99;100.00;98328.78;4942106;28;20061;-47
2022/11/15 06:38:09;;;;;;;18.45;2.40;;;;;;;7.96;100.00;98335.09;4934312;28;20509;-48
2022/11/15 06:40:39;;;;;;;14.13;3.28;;;;;;;7.95;100.00;98341.75;4957998;28;20055;-44
2022/11/15 06:43:06;;;;;;;8.10;1.92;;;;;;;7.94;100.00;98337.41;4964894;28;20035;-42
2022/11/15 06:45:33;;;;;;;15.55;2.47;;;;;;;7.90;100.00;98336.63;4961786;28;20065;-42
2022/11/15 06:48:00;;;;;;;14.55;2.00;;;;;;;7.90;100.00;98335.84;4972710;28;20060;-44
2022/11/15 06:50:27;;;;;;;17.50;3.47;;;;;;;7.88;100.00;98343.69;4972813;28;20865;-45
2022/11/15 06:52:54;;;;;;;9.48;2.40;;;;;;;7.89;100.00;98354.31;4971866;28;20043;-45
2022/11/15 06:55:21;;;;;;;14.23;2.83;;;;;;;7.86;100.00;98368.84;4972502;28;20049;-42
2022/11/15 06:57:52;;;;;;;8.15;1.90;;;;;;;7.84;100.00;98349.19;4972804;28;20097;-43
2022/11/15 07:00:20;;;;;;;13.20;2.47;;;;;;;7.82;100.00;98359.81;4972102;28;20049;-42
2022/11/15 07:02:48;;;;;;;20.90;3.45;;;;;;;7.83;100.00;98364.16;4970057;28;20098;-43
2022/11/15 07:05:15;;;;;;;13.52;2.80;;;;;;;7.82;100.00;98368.06;4971588;28;20054;-49
2022/11/15 07:07:42;;;;;;;21.58;3.20;;;;;;;7.82;100.00;98373.56;4972485;28;20082;-48
2022/11/15 07:10:09;;;;;;;13.35;3.10;;;;;;;7.78;100.00;98366.47;4973064;28;20053;-44
2022/11/15 07:12:36;;;;;;;18.45;4.82;;;;;;;7.76;100.00;98375.09;4971376;28;20055;-43
2022/11/15 07:15:03;;;;;;;18.17;5.82;;;;;;;7.73;100.00;98381.38;4972318;28;20051;-43
2022/11/15 07:17:30;;;;;;;12.13;2.15;;;;;;;7.71;100.00;98397.50;4971826;28;20128;-43
2022/11/15 07:19:57;;;;;;;13.70;2.92;;;;;;;7.70;100.00;98398.69;4970875;28;20121;-43
2022/11/15 07:22:24;;;;;;;14.82;2.65;;;;;;;7.69;100.00;98401.81;4970457;28;20793;-43
2022/11/15 07:24:52;;;;;;;24.20;3.10;;;;;;;7.66;100.00;98397.06;4972441;28;20081;-44
2022/11/15 07:27:19;;;;;;;16.98;2.78;;;;;;;7.63;100.00;98381.31;4972729;28;20407;-43
2022/11/15 07:29:46;;;;;;;17.77;4.07;;;;;;;7.61;100.00;98380.91;4970728;28;20456;-44
2022/11/15 07:32:13;;;;;;;12.65;1.92;;;;;;;7.59;100.00;98373.03;4970940;28;20047;-44
2022/11/15 07:34:39;;;;;;;13.90;2.28;;;;;;;7.56;100.00;98376.53;4972021;28;20170;-47
2022/11/15 07:37:06;;;;;;;16.83;2.63;;;;;;;7.54;100.00;98386.38;4971934;28;20420;-42
2022/11/15 07:39:33;;;;;;;12.40;2.25;;;;;;;7.52;99.98;98388.72;4986386;28;20059;-42
2022/11/15 07:44:45;;;;;;;14.52;2.05;;;;;;;7.42;99.94;98370.94;4968248;28;20576;-43
2022/11/15 07:47:12;;;;;;;8.27;1.77;;;;;;;7.39;99.77;98377.19;4971468;28;20441;-46
2022/11/15 07:49:39;;;;;;;17.25;3.03;;;;;;;7.35;99.63;98373.63;4969667;28;20050;-44
2022/11/15 07:52:06;;;;;;;15.20;3.03;;;;;;;7.30;99.72;98369.28;4969280;28;20122;-43
2022/11/15 07:54:33;;;;;;;18.05;2.72;;;;;;;7.26;99.29;98365.69;4969638;28;20106;-45
2022/11/15 07:57:00;;;;;;;8.77;2.33;;;;;;;7.23;99.30;98368.41;4969217;28;20049;-42
2022/11/15 07:59:32;;;;;;;18.58;1.95;;;;;;;7.17;99.43;98369.94;4969882;28;20039;-43
2022/11/15 08:01:59;;;;;;;16.25;2.28;;;;;;;7.15;99.32;98366.75;4969313;28;20089;-48
2022/11/15 08:04:26;;;;;;;8.48;2.63;;;;;;;7.11;99.14;98366.75;4969829;28;20624;-42
2022/11/15 08:06:53;;;;;;;15.65;2.78;;;;;;;7.08;98.96;98372.22;4970445;28;20489;-46
2022/11/15 08:09:20;;;;;;;10.95;3.28;;;;;;;7.06;98.95;98374.56;4968411;28;20070;-43
2022/11/15 08:11:47;;;;;;;14.85;2.78;;;;;;;7.02;98.96;98384.72;4969244;28;20382;-46
2022/11/15 08:14:14;;;;;;;15.90;2.45;;;;;;;6.97;98.89;98380.38;4968265;28;20043;-43
2022/11/15 08:16:40;;;;;;;19.67;4.05;;;;;;;6.96;98.92;98384.31;4969650;28;20053;-45
2022/11/15 08:19:07;;;;;;;14.63;2.75;;;;;;;6.94;98.81;98388.56;4969020;28;20053;-45
2022/11/15 08:21:34;;;;;;;8.25;2.08;;;;;;;6.94;98.97;98391.34;4969682;28;20481;-47
2022/11/15 08:24:02;;;;;;;12.13;2.05;;;;;;;6.89;98.79;98381.47;4971106;28;20094;-42
2022/11/15 08:26:29;;;;;;;17.88;2.63;;;;;;;6.87;98.87;98377.53;4969793;28;20046;-43
2022/11/15 08:28:56;;;;;;;14.35;2.35;;;;;;;6.85;98.77;98379.88;4968908;28;20106;-43
2022/11/15 08:31:23;;;;;;;14.10;3.08;;;;;;;6.82;98.78;98378.66;4967713;28;20146;-43
2022/11/15 08:33:50;;;;;;;27.05;3.85;;;;;;;6.83;98.89;98388.47;4968924;28;20061;-43
2022/11/15 08:36:17;;;;;;;11.38;4.80;;;;;;;6.83;98.95;98390.47;4968314;28;20110;-46
2022/11/15 08:38:44;;;;;;;15.25;2.72;;;;;;;6.83;98.90;98399.47;4969756;28;20038;-44
2022/11/15 08:41:30;;;;;;;15.02;4.47;;;;;;;6.85;98.63;98402.66;4969325;28;20410;-43
2022/11/15 08:43:57;;;;;;;9.43;2.15;;;;;;;6.88;98.80;98412.91;4969822;28;20082;-45
2022/11/15 08:46:24;;;;;;;16.77;2.22;;;;;;;6.88;98.46;98418.41;4967337;28;20058;-44
2022/11/15 08:48:51;;;;;;;11.35;2.67;;;;;;;6.90;98.48;98415.28;4968588;28;20050;-46
2022/11/15 08:51:19;;;;;;;14.38;2.45;;;;;;;6.91;98.41;98416.88;4965806;28;20073;-46
2022/11/15 08:53:47;;;;;;;14.07;2.90;;;;;;;6.91;98.31;98409.38;4969978;28;20432;-43
2022/11/15 08:56:15;;;;;;;15.80;2.20;;;;;;;6.93;98.38;98409.03;4968509;28;20066;-46
2022/11/15 08:58:42;;;;;;;13.93;1.85;;;;;;;6.94;98.25;98397.63;4967010;28;20085;-48
2022/11/15 09:01:19;;;;;;;11.00;2.20;;;;;;;6.97;98.17;98399.63;4966961;28;20062;-44
2022/11/15 09:03:46;;;;;;;10.73;2.72;;;;;;;6.97;98.14;98404.34;4968221;28;20109;-47
2022/11/15 09:06:13;;;;;;;19.92;2.45;;;;;;;6.97;97.96;98398.81;4968425;28;20141;-45
2022/11/15 09:08:40;;;;;;;21.08;3.05;;;;;;;6.99;97.99;98396.50;4967935;28;20043;-44
2022/11/15 09:11:16;;;;;;;12.65;2.33;;;;;;;7.02;98.17;98395.72;4969245;28;20480;-44
2022/11/15 09:13:43;;;;;;;15.43;2.50;;;;;;;7.00;98.21;98387.88;4959385;28;20050;-44
2022/11/15 09:16:11;;;;;;;9.68;2.17;;;;;;;6.99;97.85;98394.53;4964896;28;20065;-47
2022/11/15 09:18:38;;;;;;;11.48;3.38;;;;;;;6.98;97.63;98384.72;4962003;28;20512;-44
2022/11/15 09:21:05;;;;;;;12.18;2.78;;;;;;;6.98;97.66;98383.91;4968477;28;20042;-43
2022/11/15 09:23:33;;;;;;;20.35;4.55;;;;;;;6.97;97.79;98374.06;4965302;28;20038;-44
2022/11/15 09:26:02;;;;;;;12.80;2.72;;;;;;;6.94;97.56;98366.56;4968566;28;20046;-43
2022/11/15 09:28:30;;;;;;;22.63;3.75;;;;;;;6.94;97.14;98372.88;4967225;28;20129;-43
2022/11/15 09:30:58;;;;;;;13.18;2.63;;;;;;;6.95;97.36;98373.66;4967452;28;20049;-44
2022/11/15 09:33:26;;;;;;;16.05;2.97;;;;;;;6.98;97.35;98370.16;4967471;28;20051;-43
2022/11/15 09:35:53;;;;;;;17.55;3.58;;;;;;;6.99;97.45;98374.50;4969748;28;20054;-43
2022/11/15 09:38:20;;;;;;;13.20;2.53;;;;;;;7.03;97.49;98369.81;4966593;28;20043;-46
2022/11/15 09:40:55;;;;;;;20.27;2.55;;;;;;;7.08;97.47;98366.72;4967260;28;20105;-44
2022/11/15 09:43:54;;;;;;;17.08;3.17;;;;;;;7.15;97.40;98366.75;4967678;28;20048;-45
2022/11/15 09:46:27;;;;;;;16.90;3.78;;;;;;;7.22;97.29;98369.59;4967939;28;20042;-42
2022/11/15 09:49:00;;;;;;;17.27;3.60;;;;;;;7.29;97.15;98364.13;4965315;28;20117;-44
2022/11/15 09:51:48;;;;;;;10.38;2.80;;;;;;;7.32;96.94;98366.13;4968533;28;20054;-53
2022/11/15 09:54:25;;;;;;;14.07;3.70;;;;;;;7.38;96.84;98361.88;4967190;28;20057;-46
2022/11/15 09:57:18;;;;;;;12.70;2.47;;;;;;;7.43;96.74;98357.97;4963973;28;20054;-47
2022/11/15 10:00:07;;;;;;;11.25;2.20;;;;;;;7.53;96.80;98357.25;4968214;28;20054;-44
2022/11/15 10:03:03;;;;;;;16.90;2.67;;;;;;;7.67;96.67;98360.91;4965143;28;20050;-43
2022/11/15 10:05:35;;;;;;;15.77;2.97;;;;;;;7.80;96.63;98361.34;4967130;28;20051;-48
2022/11/15 10:08:06;;;;;;;18.85;3.10;;;;;;;7.90;96.34;98364.19;4968616;28;20055;-43
2022/11/15 10:10:43;;;;;;;16.67;2.50;;;;;;;7.98;95.96;98363.03;4968408;28;20131;-44
2022/11/15 10:13:22;;;;;;;15.45;2.58;;;;;;;8.06;95.85;98360.31;4968858;28;20397;-44
2022/11/15 10:15:51;;;;;;;11.45;2.55;;;;;;;8.15;95.80;98358.00;4986901;28;20051;-45
2022/11/15 10:18:28;;;;;;;24.95;5.95;;;;;;;8.21;95.49;98364.69;4970812;28;20051;-43
2022/11/15 10:21:36;;;;;;;13.45;3.75;;;;;;;8.28;95.28;98362.81;4971158;28;20452;-49
2022/11/15 10:24:13;;;;;;;10.93;2.53;;;;;;;8.32;94.76;98368.34;4938743;29;20079;-44
2022/11/15 10:26:47;;;;;;;10.90;2.55;;;;;;;8.32;94.37;98363.63;4951365;29;20146;-42
2022/11/15 10:29:24;;;;;;;17.55;2.60;;;;;;;8.32;94.18;98362.81;4961494;28;20050;-42
2022/11/15 10:31:53;;;;;;;13.75;2.40;;;;;;;8.32;93.88;98351.78;4961097;28;20046;-47
2022/11/15 10:34:21;;;;;;;14.63;2.28;;;;;;;8.29;93.30;98341.53;4969715;28;20062;-46
2022/11/15 10:36:56;;;;;;;12.68;2.45;;;;;;;8.23;93.26;98338.38;4972698;28;20085;-43
2022/11/15 10:39:24;;;;;;;8.00;1.70;;;;;;;8.20;92.94;98338.34;4969017;28;20047;-45
2022/11/15 10:41:51;;;;;;;11.13;2.03;;;;;;;8.16;92.52;98334.75;4972131;28;20142;-43
2022/11/15 10:44:26;;;;;;;20.20;2.40;;;;;;;8.18;92.57;98335.19;4968339;28;20053;-44
2022/11/15 10:46:55;;;;;;;16.55;2.50;;;;;;;8.22;92.23;98333.22;4969480;28;20407;-44
2022/11/15 10:49:25;;;;;;;5.43;1.75;;;;;;;8.26;91.98;98331.28;4966284;28;20197;-45
2022/11/15 10:52:11;;;;;;;13.50;2.88;;;;;;;8.32;91.85;98324.22;4971831;28;20050;-51
2022/11/15 10:54:46;;;;;;;13.20;4.32;;;;;;;8.39;91.61;98329.78;4966257;28;20041;-46
2022/11/15 10:57:22;;;;;;;13.50;2.33;;;;;;;8.41;91.09;98327.41;4968592;28;20057;-44
2022/11/15 10:59:58;;;;;;;13.50;2.92;;;;;;;8.39;90.85;98324.28;4968658;28;20562;-45
2022/11/15 11:02:35;;;;;;;14.23;2.50;;;;;;;8.38;90.70;98325.44;4970608;28;20108;-47
2022/11/15 11:05:24;;;;;;;12.13;2.45;;;;;;;8.35;90.26;98326.22;4970049;28;20061;-44
2022/11/15 11:08:22;;;;;;;12.07;2.17;;;;;;;8.32;89.84;98321.47;4962746;28;20463;-44
2022/11/15 11:11:02;;;;;;;9.48;1.85;;;;;;;8.32;89.80;98326.97;4971531;28;20101;-45
2022/11/15 11:13:34;;;;;;;7.80;1.65;;;;;;;8.31;89.59;98333.69;4972317;28;20046;-46
2022/11/15 11:16:26;;;;;;;9.25;2.55;;;;;;;8.32;89.34;98324.22;4968442;28;20041;-43
2022/11/15 11:19:16;;;;;;;13.40;1.90;;;;;;;8.33;89.07;98332.13;4969510;28;20050;-46
2022/11/15 11:22:05;;;;;;;10.60;1.98;;;;;;;8.34;88.83;98332.91;4967864;28;20039;-43
2022/11/15 11:25:34;;;;;;;21.58;3.65;;;;;;;8.34;88.62;98317.13;4964970;28;20087;-43
2022/11/15 11:28:26;;;;;;;12.65;2.00;;;;;;;8.34;88.38;98314.38;4946904;28;20062;-43
2022/11/15 11:30:53;;;;;;;;;;;;;;;8.35;87.86;98302.19;4971778;28;20079;-45
2022/11/15 11:33:43;;;;;;;6.68;2.10;;;;;;;8.38;88.05;98311.66;4971903;28;19930;-47
2022/11/15 11:36:12;;;;;;;10.32;2.70;;;;;;;8.38;87.97;98306.94;4968992;28;20481;-46
2022/11/15 11:38:52;;;;;;;13.25;1.85;;;;;;;8.39;87.68;98305.72;4969381;28;20057;-44
2022/11/15 11:41:44;;;;;;;11.48;3.15;;;;;;;8.43;87.42;98305.75;4959982;28;20039;-44
2022/11/15 11:44:46;;;;;;;8.00;2.00;;;;;;;8.45;87.05;98289.59;4986478;28;20531;-44
2022/11/15 11:47:13;;;;;;;;;;;;;;;8.47;86.80;98284.50;4971476;28;20074;-43
2022/11/15 11:49:52;;;;;;;6.93;1.50;;;;;;;8.49;86.89;98280.19;4967135;28;19937;-44
2022/11/15 11:52:55;;;;;;;8.25;1.50;;;;;;;8.51;86.47;98269.53;4970010;28;20138;-47
2022/11/15 11:55:43;;;;;;;12.55;1.50;;;;;;;8.53;85.90;98264.41;4960322;28;20461;-44
2022/11/15 11:58:36;;;;;;;14.85;1.77;;;;;;;8.55;85.82;98258.53;4974829;28;20048;-45
2022/11/15 12:01:33;;;;;;;13.40;2.38;;;;;;;8.58;85.42;98254.97;4962074;28;20149;-43
2022/11/15 12:04:09;;;;;;;6.93;1.92;;;;;;;8.61;85.23;98256.13;4971720;28;20047;-45
2022/11/15 12:06:54;;;;;;;10.07;2.72;;;;;;;8.62;85.09;98255.75;4967234;28;20057;-43
2022/11/15 12:09:48;;;;;;;7.78;1.50;;;;;;;8.64;84.97;98250.63;4970555;28;20069;-44
2022/11/15 12:12:18;;;;;;;7.20;1.48;;;;;;;8.68;84.89;98254.19;4968274;28;20050;-44